Terminal Aerodrome Forecast
Issued by NWS Buffalo, NY

Home | Current Version | Previous Version | Text Only | Print | Product List | Glossary On
Versions: 1 2 3 4 5 6 7 8 9 10 11 12 13 14 15 16 17 18 19 20 21 22 23 24
000
FTUS41 KBUF 251120
TAFBUF
TAF
KBUF 251120Z 2512/2612 14004KT P6SM SCT250
     FM251900 08006KT P6SM SCT250
     FM260200 VRB03KT P6SM SCT250
     FM260400 13004KT P6SM SCT250
     FM260700 16004KT 6SM BR SCT250=

USA.gov is the U.S. government's official web portal to all federal, state and local government web resources and services.